createdAt,value
2022-11-02T00:01:38.918Z,8.10
2022-11-02T00:04:07.321Z,8.10
2022-11-02T00:06:35.510Z,8.00
2022-11-02T00:09:04.182Z,8.00
2022-11-02T00:11:34.177Z,8.00
2022-11-02T00:14:02.310Z,7.90
2022-11-02T00:16:30.845Z,7.90
2022-11-02T00:19:01.357Z,7.80
2022-11-02T00:21:29.799Z,7.70
2022-11-02T00:23:59.867Z,7.80
2022-11-02T00:26:29.378Z,7.90
2022-11-02T00:28:59.905Z,8.10
2022-11-02T00:31:28.255Z,8.20
2022-11-02T00:33:56.930Z,8.20
2022-11-02T00:36:25.996Z,8.30
2022-11-02T00:38:54.209Z,8.30
2022-11-02T00:41:23.291Z,8.30
2022-11-02T00:43:51.460Z,8.40
2022-11-02T00:46:21.385Z,8.30
2022-11-02T00:48:49.782Z,8.40
2022-11-02T00:51:17.958Z,8.30
2022-11-02T00:53:46.132Z,8.40
2022-11-02T00:56:14.409Z,8.30
2022-11-02T00:58:42.656Z,8.10
2022-11-02T01:01:11.002Z,8.10
2022-11-02T01:03:41.070Z,8.10
2022-11-02T01:06:10.698Z,8.10
2022-11-02T01:08:39.058Z,8.10
2022-11-02T01:11:12.285Z,8.10
2022-11-02T01:13:40.599Z,8.10
2022-11-02T01:16:10.058Z,8.20
2022-11-02T01:18:38.475Z,8.20
2022-11-02T01:21:09.053Z,8.20
2022-11-02T01:23:39.289Z,8.30
2022-11-02T01:26:09.481Z,8.40
2022-11-02T01:28:39.415Z,8.30
2022-11-02T01:31:08.975Z,8.30
2022-11-02T01:33:37.661Z,8.40
2022-11-02T01:36:09.203Z,8.30
2022-11-02T01:38:37.452Z,8.30
2022-11-02T01:41:06.027Z,8.30
2022-11-02T01:43:36.143Z,8.30
2022-11-02T01:46:08.925Z,8.40
2022-11-02T01:48:38.986Z,8.30
2022-11-02T01:51:12.457Z,8.30
2022-11-02T01:53:45.436Z,8.20
2022-11-02T01:56:16.531Z,8.10
2022-11-02T01:58:48.987Z,8.10
2022-11-02T02:01:17.300Z,8.10
2022-11-02T02:03:47.810Z,8.10
2022-11-02T02:06:18.070Z,8.20
2022-11-02T02:08:49.716Z,8.00
2022-11-02T02:11:29.532Z,8.10
2022-11-02T02:14:00.398Z,8.10
2022-11-02T02:16:41.265Z,8.00
2022-11-02T02:19:30.361Z,7.90
2022-11-02T02:22:34.990Z,7.90
2022-11-02T02:25:24.287Z,7.80
2022-11-02T02:28:12.150Z,7.90
2022-11-02T02:30:47.817Z,7.90
2022-11-02T02:33:23.123Z,7.80
2022-11-02T02:35:56.315Z,7.80
2022-11-02T02:38:31.875Z,7.70
2022-11-02T02:41:05.707Z,7.80
2022-11-02T02:43:41.640Z,7.70
2022-11-02T02:46:14.650Z,7.80
2022-11-02T02:48:45.544Z,7.90
2022-11-02T02:51:18.776Z,7.80
2022-11-02T02:53:51.656Z,7.80
2022-11-02T02:56:25.024Z,7.80
2022-11-02T02:59:00.578Z,7.90
2022-11-02T03:01:29.816Z,8.10
2022-11-02T03:03:58.088Z,8.00
2022-11-02T03:06:30.014Z,8.10
2022-11-02T03:09:09.534Z,8.10
2022-11-02T03:11:48.323Z,8.20
2022-11-02T03:14:33.090Z,8.30
2022-11-02T03:17:14.396Z,8.40
2022-11-02T03:19:51.183Z,8.40
2022-11-02T03:22:28.603Z,8.40
2022-11-02T03:25:01.807Z,8.40
2022-11-02T03:27:39.758Z,8.50
2022-11-02T03:30:14.607Z,8.80
2022-11-02T03:32:49.979Z,8.80
2022-11-02T03:35:21.734Z,8.80
2022-11-02T03:37:54.002Z,8.90
2022-11-02T03:40:30.955Z,8.90
2022-11-02T03:43:01.248Z,9.00
2022-11-02T03:45:34.461Z,9.10
2022-11-02T03:48:07.615Z,9.20
2022-11-02T03:50:41.709Z,9.20
2022-11-02T03:53:14.633Z,9.30
2022-11-02T03:55:47.273Z,9.30
2022-11-02T03:58:15.624Z,9.30
2022-11-02T04:00:51.441Z,9.30
2022-11-02T04:03:20.822Z,9.30
2022-11-02T04:05:48.952Z,9.30
2022-11-02T04:08:24.510Z,9.40
2022-11-02T04:11:11.403Z,9.50
2022-11-02T04:13:57.346Z,9.50
2022-11-02T04:16:28.267Z,9.50
2022-11-02T04:19:14.292Z,9.60
2022-11-02T04:22:02.760Z,9.60
2022-11-02T04:24:48.516Z,9.60
2022-11-02T04:27:20.553Z,9.60
2022-11-02T04:29:49.552Z,9.60
2022-11-02T04:32:39.904Z,9.60
2022-11-02T04:35:08.557Z,9.60
2022-11-02T04:37:58.159Z,9.60
2022-11-02T04:40:26.584Z,9.60
2022-11-02T04:42:53.818Z,9.70
2022-11-02T04:45:22.379Z,9.70
2022-11-02T04:47:52.082Z,9.80
2022-11-02T04:50:20.610Z,9.80
2022-11-02T04:52:56.030Z,9.80
2022-11-02T04:55:24.358Z,9.80
2022-11-02T04:57:52.747Z,9.70
2022-11-02T05:00:22.069Z,9.60
2022-11-02T05:02:52.279Z,9.60
2022-11-02T05:05:20.477Z,9.60
2022-11-02T05:07:48.906Z,9.70
2022-11-02T05:10:17.785Z,9.70
2022-11-02T05:12:46.035Z,9.80
2022-11-02T05:15:14.336Z,9.80
2022-11-02T05:17:42.517Z,9.80
2022-11-02T05:20:12.633Z,9.80
2022-11-02T05:22:44.084Z,9.80
2022-11-02T05:25:13.014Z,9.90
2022-11-02T05:27:41.335Z,9.90
2022-11-02T05:30:12.197Z,9.90
2022-11-02T05:32:41.033Z,10.00
2022-11-02T05:35:11.477Z,10.00
2022-11-02T05:37:39.811Z,10.00
2022-11-02T05:40:09.391Z,10.20
2022-11-02T05:42:37.610Z,10.10
2022-11-02T05:45:06.748Z,10.20
2022-11-02T05:47:36.110Z,10.20
2022-11-02T05:50:04.584Z,10.20
2022-11-02T05:52:35.945Z,10.20
2022-11-02T05:55:04.267Z,10.20
2022-11-02T05:57:32.478Z,10.30
2022-11-02T06:00:01.228Z,10.30
2022-11-02T06:02:29.455Z,10.20
2022-11-02T06:04:58.205Z,10.20
2022-11-02T06:07:26.562Z,10.10
2022-11-02T06:09:56.204Z,10.20
2022-11-02T06:12:24.393Z,10.20
2022-11-02T06:14:52.871Z,10.10
2022-11-02T06:17:21.232Z,10.10
2022-11-02T06:19:49.828Z,10.00
2022-11-02T06:22:18.258Z,10.00
2022-11-02T06:24:46.498Z,10.10
2022-11-02T06:27:16.110Z,10.10
2022-11-02T06:29:44.353Z,10.00
2022-11-02T06:32:12.527Z,9.90
2022-11-02T06:34:40.908Z,9.90
2022-11-02T06:37:09.258Z,9.90
2022-11-02T06:42:10.961Z,9.90
2022-11-02T06:44:41.169Z,9.90
2022-11-02T06:47:10.037Z,10.00
2022-11-02T06:49:38.353Z,10.00
2022-11-02T06:52:06.747Z,10.10
2022-11-02T06:54:35.525Z,10.10
2022-11-02T06:57:03.953Z,10.20
2022-11-02T06:59:32.214Z,10.20
2022-11-02T07:02:02.034Z,10.20
2022-11-02T07:04:30.864Z,10.30
2022-11-02T07:06:59.246Z,10.30
2022-11-02T07:09:27.477Z,10.50
2022-11-02T07:11:56.026Z,10.50
2022-11-02T07:14:24.180Z,10.60
2022-11-02T07:16:52.590Z,10.60
2022-11-02T07:19:22.278Z,10.50
2022-11-02T07:21:50.499Z,10.50
2022-11-02T07:24:18.738Z,10.50
2022-11-02T07:26:49.500Z,10.60
2022-11-02T07:29:18.073Z,10.60
2022-11-02T07:31:46.931Z,10.90
2022-11-02T07:34:17.175Z,10.90
2022-11-02T07:36:47.318Z,11.10
2022-11-02T07:39:19.071Z,11.20
2022-11-02T07:41:51.761Z,12.10
2022-11-02T07:44:20.452Z,11.40
2022-11-02T07:46:48.659Z,12.80
2022-11-02T07:49:21.325Z,13.00
2022-11-02T07:51:51.348Z,12.30
2022-11-02T07:54:19.586Z,12.90
2022-11-02T07:56:47.820Z,13.20
2022-11-02T07:59:16.850Z,12.10
2022-11-02T08:01:45.108Z,14.30
2022-11-02T08:04:13.357Z,12.40
2022-11-02T08:06:41.802Z,13.40
2022-11-02T08:09:11.711Z,14.50
2022-11-02T08:11:39.943Z,14.30
2022-11-02T08:14:08.462Z,14.70
2022-11-02T08:16:36.698Z,13.90
2022-11-02T08:19:05.274Z,12.20
2022-11-02T08:21:33.631Z,11.60
2022-11-02T08:24:01.868Z,11.50
2022-11-02T08:26:31.583Z,11.50
2022-11-02T08:28:59.855Z,11.80
2022-11-02T08:31:28.755Z,11.70
2022-11-02T08:33:58.749Z,11.60
2022-11-02T08:36:27.071Z,11.60
2022-11-02T08:38:55.255Z,11.70
2022-11-02T08:41:24.554Z,11.60
2022-11-02T08:43:54.245Z,11.70
2022-11-02T08:46:22.470Z,11.80
2022-11-02T08:48:50.844Z,11.60
2022-11-02T08:51:19.175Z,11.70
2022-11-02T08:53:51.605Z,11.80
2022-11-02T08:56:20.661Z,11.90
2022-11-02T08:58:48.818Z,11.90
2022-11-02T09:01:18.588Z,12.00
2022-11-02T09:03:46.922Z,11.80
2022-11-02T09:06:15.261Z,12.00
2022-11-02T09:08:43.709Z,12.00
2022-11-02T09:11:12.101Z,12.20
2022-11-02T09:13:40.763Z,12.30
2022-11-02T09:16:09.724Z,12.30
2022-11-02T09:18:40.487Z,12.40
2022-11-02T09:21:09.327Z,12.70
2022-11-02T09:23:37.704Z,13.00
2022-11-02T09:26:06.765Z,13.00
2022-11-02T09:28:35.032Z,12.70
2022-11-02T09:31:07.450Z,12.60
2022-11-02T09:33:41.523Z,12.60
2022-11-02T09:36:10.470Z,12.80
2022-11-02T09:38:38.811Z,12.80
2022-11-02T09:41:15.886Z,12.70
2022-11-02T09:43:57.314Z,12.50
2022-11-02T09:46:29.167Z,12.80
2022-11-02T09:49:01.939Z,12.90
2022-11-02T09:51:35.220Z,12.90
2022-11-02T09:54:13.061Z,13.10
2022-11-02T09:56:44.083Z,13.20
2022-11-02T09:59:17.037Z,13.30
2022-11-02T10:01:58.084Z,13.20
2022-11-02T10:04:52.978Z,13.30
2022-11-02T10:07:38.272Z,13.10
2022-11-02T10:10:14.198Z,13.10
2022-11-02T10:12:51.031Z,12.90
2022-11-02T10:15:24.073Z,13.00
2022-11-02T10:17:59.113Z,12.90
2022-11-02T10:20:33.978Z,12.90
2022-11-02T10:23:07.396Z,12.80
2022-11-02T10:25:37.500Z,12.60
2022-11-02T10:28:16.223Z,12.60
2022-11-02T10:30:46.329Z,12.80
2022-11-02T10:33:18.570Z,12.90
2022-11-02T10:36:18.550Z,12.90
2022-11-02T10:39:02.900Z,13.10
2022-11-02T10:41:49.079Z,12.90
2022-11-02T10:44:34.027Z,12.80
2022-11-02T10:47:11.378Z,12.90
2022-11-02T10:50:15.627Z,13.10
2022-11-02T10:52:47.588Z,13.20
2022-11-02T10:55:24.048Z,13.20
2022-11-02T10:57:55.043Z,13.10
2022-11-02T11:00:28.901Z,13.20
2022-11-02T11:03:08.728Z,13.30
2022-11-02T11:05:39.726Z,13.40
2022-11-02T11:08:30.453Z,13.50
2022-11-02T11:11:16.876Z,13.50
2022-11-02T11:16:42.968Z,13.30
2022-11-02T11:19:40.517Z,13.40
2022-11-02T11:22:26.622Z,13.20
2022-11-02T11:25:27.435Z,13.20
2022-11-02T11:27:57.931Z,13.20
2022-11-02T11:30:53.931Z,13.10
2022-11-02T11:33:18.267Z,13.10
2022-11-02T11:35:51.044Z,13.10
2022-11-02T11:38:22.501Z,13.10
2022-11-02T11:40:55.177Z,13.20
2022-11-02T11:43:26.485Z,13.30
2022-11-02T11:46:03.966Z,13.30
2022-11-02T11:48:37.664Z,13.40
2022-11-02T11:51:22.886Z,13.50
2022-11-02T11:54:21.395Z,13.70
2022-11-02T11:56:52.657Z,13.70
2022-11-02T11:59:26.660Z,13.90
2022-11-02T12:01:58.890Z,14.50
2022-11-02T12:04:33.369Z,14.40
2022-11-02T12:07:56.977Z,14.20
2022-11-02T12:10:41.650Z,13.90
2022-11-02T12:13:23.557Z,13.90
2022-11-02T12:16:05.371Z,13.70
2022-11-02T12:18:54.912Z,13.70
2022-11-02T12:21:39.685Z,13.80
2022-11-02T12:24:21.777Z,14.00
2022-11-02T12:27:00.921Z,14.00
2022-11-02T12:29:51.598Z,14.10
2022-11-02T12:32:31.103Z,14.30
2022-11-02T12:35:32.013Z,13.90
2022-11-02T12:38:15.101Z,13.60
2022-11-02T12:40:55.346Z,13.70
2022-11-02T12:43:39.264Z,13.60
2022-11-02T12:46:26.411Z,13.60
2022-11-02T12:49:26.193Z,13.80
2022-11-02T12:52:01.329Z,13.80
2022-11-02T12:54:41.396Z,14.10
2022-11-02T12:57:14.054Z,14.00
2022-11-02T12:59:44.950Z,13.80
2022-11-02T13:02:20.273Z,13.60
2022-11-02T13:04:52.975Z,13.40
2022-11-02T13:07:30.964Z,13.50
2022-11-02T13:10:04.979Z,13.30
2022-11-02T13:12:35.284Z,13.40
2022-11-02T13:15:10.898Z,13.20
2022-11-02T13:17:45.477Z,13.30
2022-11-02T13:20:18.663Z,13.30
2022-11-02T13:22:52.023Z,13.30
2022-11-02T13:25:24.381Z,13.60
2022-11-02T13:28:02.687Z,13.70
2022-11-02T13:30:35.352Z,13.80
2022-11-02T13:33:14.470Z,13.90
2022-11-02T13:35:43.462Z,13.90
2022-11-02T13:38:26.023Z,13.60
2022-11-02T13:41:08.101Z,13.50
2022-11-02T13:44:21.051Z,13.50
2022-11-02T13:47:13.867Z,13.50
2022-11-02T13:49:45.842Z,13.50
2022-11-02T13:52:16.699Z,13.50
2022-11-02T13:54:48.184Z,13.50
2022-11-02T13:57:33.494Z,13.50
2022-11-02T14:00:03.192Z,13.50
2022-11-02T14:02:36.055Z,13.40
2022-11-02T14:05:06.399Z,13.50
2022-11-02T14:07:37.029Z,13.50
2022-11-02T14:10:09.989Z,13.40
2022-11-02T14:12:44.154Z,13.40
2022-11-02T14:15:49.319Z,13.50
2022-11-02T14:18:31.398Z,13.40
2022-11-02T14:21:39.241Z,13.40
2022-11-02T14:24:41.334Z,13.40
2022-11-02T14:27:31.074Z,13.40
2022-11-02T14:30:00.002Z,13.40
2022-11-02T14:32:43.378Z,13.30
2022-11-02T14:35:34.491Z,13.30
2022-11-02T14:38:45.706Z,13.20
2022-11-02T14:41:26.232Z,13.20
2022-11-02T14:44:10.604Z,13.10
2022-11-02T14:46:57.504Z,12.90
2022-11-02T14:49:29.976Z,12.90
2022-11-02T14:52:05.001Z,12.90
2022-11-02T14:54:40.497Z,12.80
2022-11-02T14:57:21.544Z,12.80
2022-11-02T14:59:53.393Z,12.70
2022-11-02T15:02:25.290Z,12.70
2022-11-02T15:04:55.845Z,12.60
2022-11-02T15:07:30.812Z,12.60
2022-11-02T15:10:02.009Z,12.70
2022-11-02T15:12:39.811Z,12.60
2022-11-02T15:15:33.603Z,12.60
2022-11-02T15:18:25.177Z,12.50
2022-11-02T15:21:24.992Z,12.40
2022-11-02T15:24:17.657Z,12.40
2022-11-02T15:26:53.366Z,12.30
2022-11-02T15:29:40.619Z,12.20
2022-11-02T15:32:19.750Z,12.10
2022-11-02T15:34:52.323Z,12.20
2022-11-02T15:37:23.702Z,12.10
2022-11-02T15:39:53.226Z,12.10
2022-11-02T15:42:38.607Z,12.10
2022-11-02T15:45:51.805Z,12.00
2022-11-02T15:48:43.663Z,12.00
2022-11-02T15:51:21.793Z,12.00
2022-11-02T15:54:14.916Z,11.90
2022-11-02T15:56:54.962Z,11.90
2022-11-02T15:59:56.642Z,11.80
2022-11-02T16:02:27.794Z,11.80
2022-11-02T16:04:58.997Z,11.60
2022-11-02T16:07:33.160Z,11.60
2022-11-02T16:10:27.162Z,11.50
2022-11-02T16:13:00.234Z,11.50
2022-11-02T16:15:30.509Z,11.50
2022-11-02T16:18:00.321Z,11.40
2022-11-02T16:20:30.982Z,11.40
2022-11-02T16:23:04.584Z,11.30
2022-11-02T16:25:39.618Z,11.20
2022-11-02T16:28:18.641Z,11.20
2022-11-02T16:31:01.621Z,11.10
2022-11-02T16:33:32.781Z,11.00
2022-11-02T16:36:02.013Z,11.00
2022-11-02T16:38:30.623Z,10.90
2022-11-02T16:40:59.099Z,11.00
2022-11-02T16:43:28.432Z,10.90
2022-11-02T16:46:04.187Z,10.90
2022-11-02T16:48:34.774Z,10.80
2022-11-02T16:51:07.192Z,10.80
2022-11-02T16:53:40.001Z,10.70
2022-11-02T16:56:28.565Z,10.60
2022-11-02T16:59:01.391Z,10.70
2022-11-02T17:01:39.093Z,10.60
2022-11-02T17:04:20.755Z,10.50
2022-11-02T17:06:51.438Z,10.50
2022-11-02T17:09:29.849Z,10.40
2022-11-02T17:12:00.920Z,10.30
2022-11-02T17:14:30.874Z,10.40
2022-11-02T17:17:03.773Z,10.40
2022-11-02T17:19:47.014Z,10.30
2022-11-02T17:22:25.295Z,10.20
2022-11-02T17:25:15.792Z,10.20
2022-11-02T17:27:44.788Z,10.20
2022-11-02T17:30:44.300Z,10.20
2022-11-02T17:33:24.842Z,10.10
2022-11-02T17:35:56.073Z,10.10
2022-11-02T17:38:27.684Z,10.00
2022-11-02T17:40:57.379Z,10.00
2022-11-02T17:43:24.825Z,9.90
2022-11-02T17:45:58.113Z,9.90
2022-11-02T17:48:29.667Z,9.80
2022-11-02T17:50:59.927Z,9.80
2022-11-02T17:53:28.631Z,9.70
2022-11-02T17:55:57.695Z,9.60
2022-11-02T17:58:25.851Z,9.50
2022-11-02T18:00:55.523Z,9.50
2022-11-02T18:03:30.003Z,9.40
2022-11-02T18:06:01.074Z,9.40
2022-11-02T18:08:29.815Z,9.40
2022-11-02T18:10:58.283Z,9.40
2022-11-02T18:13:26.498Z,9.30
2022-11-02T18:15:54.883Z,9.30
2022-11-02T18:18:23.423Z,9.30
2022-11-02T18:20:51.603Z,9.20
2022-11-02T18:23:21.564Z,9.30
2022-11-02T18:25:54.033Z,9.20
2022-11-02T18:28:25.191Z,9.10
2022-11-02T18:30:53.428Z,9.10
2022-11-02T18:33:23.166Z,9.10
2022-11-02T18:35:51.803Z,9.10
2022-11-02T18:38:21.454Z,9.00
2022-11-02T18:40:49.710Z,9.00
2022-11-02T18:43:18.583Z,9.00
2022-11-02T18:45:47.627Z,9.00
2022-11-02T18:48:15.805Z,8.90
2022-11-02T18:50:44.056Z,8.90
2022-11-02T18:53:12.251Z,8.80
2022-11-02T18:55:41.836Z,8.70
2022-11-02T18:58:12.215Z,8.70
2022-11-02T19:00:40.506Z,8.70
2022-11-02T19:03:09.039Z,8.70
2022-11-02T19:05:55.057Z,8.60
2022-11-02T19:08:40.804Z,8.50
2022-11-02T19:11:10.486Z,8.50
2022-11-02T19:13:38.632Z,8.40
2022-11-02T19:16:07.566Z,8.40
2022-11-02T19:18:36.572Z,8.30
2022-11-02T19:21:05.033Z,8.20
2022-11-02T19:23:33.302Z,8.10
2022-11-02T19:26:02.028Z,8.10
2022-11-02T19:28:31.863Z,8.00
2022-11-02T19:31:00.089Z,8.00
2022-11-02T19:33:30.224Z,7.90
2022-11-02T19:35:59.565Z,7.90
2022-11-02T19:38:28.356Z,7.90
2022-11-02T19:41:03.597Z,7.90
2022-11-02T19:43:33.442Z,7.90
2022-11-02T19:46:02.550Z,7.90
2022-11-02T19:48:32.003Z,7.80
2022-11-02T19:51:07.317Z,7.70
2022-11-02T19:53:36.222Z,7.70
2022-11-02T19:56:05.308Z,7.60
2022-11-02T19:58:34.905Z,7.60
2022-11-02T20:01:07.275Z,7.50
2022-11-02T20:03:36.144Z,7.60
2022-11-02T20:06:07.039Z,7.50
2022-11-02T20:08:35.498Z,7.50
2022-11-02T20:11:06.111Z,7.40
2022-11-02T20:13:37.868Z,7.40
2022-11-02T20:16:07.900Z,7.40
2022-11-02T20:18:37.534Z,7.40
2022-11-02T20:21:07.414Z,7.40
2022-11-02T20:23:36.235Z,7.30
2022-11-02T20:26:05.992Z,7.20
2022-11-02T20:28:39.499Z,7.20
2022-11-02T20:31:10.344Z,7.30
2022-11-02T20:33:40.304Z,7.20
2022-11-02T20:36:10.097Z,7.20
2022-11-02T20:38:38.614Z,7.00
2022-11-02T20:41:09.075Z,7.00
2022-11-02T20:43:40.731Z,6.90
2022-11-02T20:46:35.852Z,6.90
2022-11-02T20:49:08.559Z,7.00
2022-11-02T20:51:50.043Z,6.90
2022-11-02T20:54:19.845Z,7.00
2022-11-02T20:56:48.511Z,6.90
2022-11-02T20:59:18.581Z,6.90
2022-11-02T21:01:47.477Z,6.80
2022-11-02T21:04:20.660Z,6.80
2022-11-02T21:06:50.341Z,6.60
2022-11-02T21:09:19.022Z,6.60
2022-11-02T21:12:04.679Z,6.50
2022-11-02T21:14:34.316Z,6.50
2022-11-02T21:17:03.271Z,6.50
2022-11-02T21:19:31.760Z,6.50
2022-11-02T21:22:00.695Z,6.50
2022-11-02T21:24:29.493Z,6.50
2022-11-02T21:26:58.864Z,6.50
2022-11-02T21:29:27.738Z,6.60
2022-11-02T21:31:57.429Z,6.60
2022-11-02T21:34:26.705Z,6.60
2022-11-02T21:36:55.236Z,6.50
2022-11-02T21:39:24.403Z,6.50
2022-11-02T21:41:52.884Z,6.50
2022-11-02T21:44:21.574Z,6.40
2022-11-02T21:46:51.237Z,6.30
2022-11-02T21:49:21.043Z,6.40
2022-11-02T21:51:49.780Z,6.40
2022-11-02T21:54:18.331Z,6.30
2022-11-02T21:56:48.481Z,6.30
2022-11-02T21:59:16.719Z,6.30
2022-11-02T22:01:49.854Z,6.10
2022-11-02T22:04:26.851Z,6.00
2022-11-02T22:06:56.216Z,6.10
2022-11-02T22:09:24.538Z,6.10
2022-11-02T22:12:15.074Z,6.10
2022-11-02T22:14:45.395Z,6.10
2022-11-02T22:17:21.989Z,6.00
2022-11-02T22:20:06.074Z,6.00
2022-11-02T22:22:34.423Z,5.90
2022-11-02T22:25:02.749Z,5.90
2022-11-02T22:27:30.974Z,5.90
2022-11-02T22:29:59.785Z,6.00
2022-11-02T22:32:28.015Z,5.80
2022-11-02T22:34:56.219Z,5.80
2022-11-02T22:37:43.567Z,5.80
2022-11-02T22:40:12.371Z,5.80
2022-11-02T22:42:42.534Z,5.80
2022-11-02T22:45:12.128Z,5.80
2022-11-02T22:47:40.741Z,5.80
2022-11-02T22:50:10.147Z,5.80
2022-11-02T22:52:39.986Z,5.80
2022-11-02T22:55:08.895Z,5.80
2022-11-02T22:57:37.266Z,5.80
2022-11-02T23:00:06.778Z,5.80
2022-11-02T23:02:35.166Z,5.70
2022-11-02T23:05:03.482Z,5.70
2022-11-02T23:07:31.758Z,5.80
2022-11-02T23:10:21.441Z,5.70
2022-11-02T23:12:52.062Z,5.70
2022-11-02T23:15:20.327Z,5.60
2022-11-02T23:17:49.787Z,5.50
2022-11-02T23:20:17.103Z,5.50
2022-11-02T23:23:02.978Z,5.50
2022-11-02T23:25:32.788Z,5.50
2022-11-02T23:28:18.610Z,5.60
2022-11-02T23:31:04.407Z,5.70
2022-11-02T23:33:34.250Z,5.80
2022-11-02T23:36:14.024Z,5.80
2022-11-02T23:39:00.753Z,5.70
2022-11-02T23:41:31.798Z,5.70
2022-11-02T23:44:13.865Z,5.60
2022-11-02T23:46:43.322Z,5.60
2022-11-02T23:49:12.085Z,5.80
2022-11-02T23:51:58.353Z,5.80
2022-11-02T23:54:43.772Z,5.80
2022-11-02T23:57:13.814Z,5.80
2022-11-02T23:59:42.069Z,5.80
